sensor_id;sensor_type;location;lat;lon;timestamp;temperature;humidity
12817;DHT22;6473;51.552;6.716;2023-08-31T00:00:22;14.10;99.90
12817;DHT22;6473;51.552;6.716;2023-08-31T00:02:50;13.10;99.90
12817;DHT22;6473;51.552;6.716;2023-08-31T00:05:17;12.50;99.90
12817;DHT22;6473;51.552;6.716;2023-08-31T00:07:44;12.50;99.90
12817;DHT22;6473;51.552;6.716;2023-08-31T00:10:12;12.50;99.90
12817;DHT22;6473;51.552;6.716;2023-08-31T00:12:39;12.40;99.90
12817;DHT22;6473;51.552;6.716;2023-08-31T00:15:09;12.40;99.90
12817;DHT22;6473;51.552;6.716;2023-08-31T00:17:36;12.30;99.90
12817;DHT22;6473;51.552;6.716;2023-08-31T00:20:04;12.20;99.90
12817;DHT22;6473;51.552;6.716;2023-08-31T00:22:33;12.20;99.90
12817;DHT22;6473;51.552;6.716;2023-08-31T00:25:00;12.10;99.90
12817;DHT22;6473;51.552;6.716;2023-08-31T00:27:27;12.10;99.90
12817;DHT22;6473;51.552;6.716;2023-08-31T00:29:55;12.10;99.90
12817;DHT22;6473;51.552;6.716;2023-08-31T00:32:24;12.00;99.90
12817;DHT22;6473;51.552;6.716;2023-08-31T00:34:51;12.80;99.90
12817;DHT22;6473;51.552;6.716;2023-08-31T00:37:18;11.90;99.90
12817;DHT22;6473;51.552;6.716;2023-08-31T00:39:46;12.40;99.90
12817;DHT22;6473;51.552;6.716;2023-08-31T00:42:17;11.90;99.90
12817;DHT22;6473;51.552;6.716;2023-08-31T00:44:44;12.00;99.90
12817;DHT22;6473;51.552;6.716;2023-08-31T00:47:12;12.00;99.90
12817;DHT22;6473;51.552;6.716;2023-08-31T00:49:41;12.00;99.90
12817;DHT22;6473;51.552;6.716;2023-08-31T00:52:08;12.00;99.90
12817;DHT22;6473;51.552;6.716;2023-08-31T00:54:36;11.90;99.90
12817;DHT22;6473;51.552;6.716;2023-08-31T00:57:03;11.90;99.90
12817;DHT22;6473;51.552;6.716;2023-08-31T00:59:30;11.90;99.90
12817;DHT22;6473;51.552;6.716;2023-08-31T01:02:03;12.50;99.90
12817;DHT22;6473;51.552;6.716;2023-08-31T01:04:39;11.80;99.90
12817;DHT22;6473;51.552;6.716;2023-08-31T01:07:21;11.80;99.90
12817;DHT22;6473;51.552;6.716;2023-08-31T01:09:57;11.80;99.90
12817;DHT22;6473;51.552;6.716;2023-08-31T01:12:32;12.10;99.90
12817;DHT22;6473;51.552;6.716;2023-08-31T01:15:05;11.80;99.90
12817;DHT22;6473;51.552;6.716;2023-08-31T01:17:39;11.70;99.90
12817;DHT22;6473;51.552;6.716;2023-08-31T01:20:09;11.70;99.90
12817;DHT22;6473;51.552;6.716;2023-08-31T01:22:47;11.70;99.90
12817;DHT22;6473;51.552;6.716;2023-08-31T01:25:16;11.60;99.90
12817;DHT22;6473;51.552;6.716;2023-08-31T01:27:43;11.60;99.90
12817;DHT22;6473;51.552;6.716;2023-08-31T01:30:11;11.50;99.90
12817;DHT22;6473;51.552;6.716;2023-08-31T01:32:43;11.60;99.90
12817;DHT22;6473;51.552;6.716;2023-08-31T01:35:11;11.60;99.90
12817;DHT22;6473;51.552;6.716;2023-08-31T01:37:43;11.50;99.90
12817;DHT22;6473;51.552;6.716;2023-08-31T01:40:13;11.50;99.90
12817;DHT22;6473;51.552;6.716;2023-08-31T01:42:47;11.70;99.90
12817;DHT22;6473;51.552;6.716;2023-08-31T01:45:17;11.60;99.90
12817;DHT22;6473;51.552;6.716;2023-08-31T01:47:45;11.50;99.90
12817;DHT22;6473;51.552;6.716;2023-08-31T01:50:12;11.50;99.90
12817;DHT22;6473;51.552;6.716;2023-08-31T01:52:39;11.50;99.90
12817;DHT22;6473;51.552;6.716;2023-08-31T01:55:07;11.50;99.90
12817;DHT22;6473;51.552;6.716;2023-08-31T01:57:34;11.40;99.90
12817;DHT22;6473;51.552;6.716;2023-08-31T02:00:18;11.80;99.90
12817;DHT22;6473;51.552;6.716;2023-08-31T02:02:46;12.70;99.90
12817;DHT22;6473;51.552;6.716;2023-08-31T02:05:13;11.40;99.90
12817;DHT22;6473;51.552;6.716;2023-08-31T02:07:40;11.30;99.90
12817;DHT22;6473;51.552;6.716;2023-08-31T02:10:08;12.50;99.90
12817;DHT22;6473;51.552;6.716;2023-08-31T02:12:34;11.30;99.90
12817;DHT22;6473;51.552;6.716;2023-08-31T02:15:04;11.30;99.90
12817;DHT22;6473;51.552;6.716;2023-08-31T02:17:33;11.30;99.90
12817;DHT22;6473;51.552;6.716;2023-08-31T02:20:00;11.20;99.90
12817;DHT22;6473;51.552;6.716;2023-08-31T02:22:30;11.30;99.90
12817;DHT22;6473;51.552;6.716;2023-08-31T02:24:57;11.20;99.90
12817;DHT22;6473;51.552;6.716;2023-08-31T02:27:23;11.20;99.90
12817;DHT22;6473;51.552;6.716;2023-08-31T02:29:50;11.20;99.90
12817;DHT22;6473;51.552;6.716;2023-08-31T02:32:17;11.10;99.90
12817;DHT22;6473;51.552;6.716;2023-08-31T02:34:47;12.30;99.90
12817;DHT22;6473;51.552;6.716;2023-08-31T02:37:14;11.20;99.90
12817;DHT22;6473;51.552;6.716;2023-08-31T02:39:41;11.10;99.90
12817;DHT22;6473;51.552;6.716;2023-08-31T02:42:08;11.20;99.90
12817;DHT22;6473;51.552;6.716;2023-08-31T02:44:35;12.30;99.90
12817;DHT22;6473;51.552;6.716;2023-08-31T02:47:02;11.90;99.90
12817;DHT22;6473;51.552;6.716;2023-08-31T02:49:29;11.10;99.90
12817;DHT22;6473;51.552;6.716;2023-08-31T02:51:57;11.10;99.90
12817;DHT22;6473;51.552;6.716;2023-08-31T02:54:24;11.10;99.90
12817;DHT22;6473;51.552;6.716;2023-08-31T02:56:51;11.10;99.90
12817;DHT22;6473;51.552;6.716;2023-08-31T02:59:18;11.10;99.90
12817;DHT22;6473;51.552;6.716;2023-08-31T03:01:45;11.00;99.90
12817;DHT22;6473;51.552;6.716;2023-08-31T03:04:13;11.00;99.90
12817;DHT22;6473;51.552;6.716;2023-08-31T03:06:40;12.20;99.90
12817;DHT22;6473;51.552;6.716;2023-08-31T03:09:08;11.10;99.90
12817;DHT22;6473;51.552;6.716;2023-08-31T03:11:35;10.90;99.90
12817;DHT22;6473;51.552;6.716;2023-08-31T03:14:03;11.00;99.90
12817;DHT22;6473;51.552;6.716;2023-08-31T03:16:30;10.80;99.90
12817;DHT22;6473;51.552;6.716;2023-08-31T03:18:57;10.80;99.90
12817;DHT22;6473;51.552;6.716;2023-08-31T03:21:24;11.30;99.90
12817;DHT22;6473;51.552;6.716;2023-08-31T03:23:51;10.80;99.90
12817;DHT22;6473;51.552;6.716;2023-08-31T03:26:19;11.00;99.90
12817;DHT22;6473;51.552;6.716;2023-08-31T03:28:46;10.80;99.90
12817;DHT22;6473;51.552;6.716;2023-08-31T03:31:14;10.80;99.90
12817;DHT22;6473;51.552;6.716;2023-08-31T03:33:41;10.80;99.90
12817;DHT22;6473;51.552;6.716;2023-08-31T03:36:08;10.70;99.90
12817;DHT22;6473;51.552;6.716;2023-08-31T03:38:35;10.80;99.90
12817;DHT22;6473;51.552;6.716;2023-08-31T03:41:04;10.70;99.90
12817;DHT22;6473;51.552;6.716;2023-08-31T03:43:33;10.70;99.90
12817;DHT22;6473;51.552;6.716;2023-08-31T03:46:00;10.70;99.90
12817;DHT22;6473;51.552;6.716;2023-08-31T03:48:27;11.00;99.90
12817;DHT22;6473;51.552;6.716;2023-08-31T03:50:55;10.70;99.90
12817;DHT22;6473;51.552;6.716;2023-08-31T03:53:22;10.70;99.90
12817;DHT22;6473;51.552;6.716;2023-08-31T03:55:54;10.70;99.90
12817;DHT22;6473;51.552;6.716;2023-08-31T03:58:23;10.70;99.90
12817;DHT22;6473;51.552;6.716;2023-08-31T04:00:53;10.70;99.90
12817;DHT22;6473;51.552;6.716;2023-08-31T04:03:20;10.70;99.90
12817;DHT22;6473;51.552;6.716;2023-08-31T04:05:47;10.70;99.90
12817;DHT22;6473;51.552;6.716;2023-08-31T04:08:14;11.50;99.90
12817;DHT22;6473;51.552;6.716;2023-08-31T04:10:41;12.90;99.90
12817;DHT22;6473;51.552;6.716;2023-08-31T04:13:08;11.40;99.90
12817;DHT22;6473;51.552;6.716;2023-08-31T04:15:35;10.80;99.90
12817;DHT22;6473;51.552;6.716;2023-08-31T04:18:04;12.40;99.90
12817;DHT22;6473;51.552;6.716;2023-08-31T04:20:33;10.70;99.90
12817;DHT22;6473;51.552;6.716;2023-08-31T04:23:00;10.70;99.90
12817;DHT22;6473;51.552;6.716;2023-08-31T04:25:28;11.10;99.90
12817;DHT22;6473;51.552;6.716;2023-08-31T04:27:57;10.60;99.90
12817;DHT22;6473;51.552;6.716;2023-08-31T04:30:23;12.20;99.90
12817;DHT22;6473;51.552;6.716;2023-08-31T04:32:52;10.80;99.90
12817;DHT22;6473;51.552;6.716;2023-08-31T04:35:20;11.50;99.90
12817;DHT22;6473;51.552;6.716;2023-08-31T04:37:47;10.70;99.90
12817;DHT22;6473;51.552;6.716;2023-08-31T04:40:14;12.30;99.90
12817;DHT22;6473;51.552;6.716;2023-08-31T04:42:41;10.70;99.90
12817;DHT22;6473;51.552;6.716;2023-08-31T04:45:08;10.70;99.90
12817;DHT22;6473;51.552;6.716;2023-08-31T04:47:36;10.70;99.90
12817;DHT22;6473;51.552;6.716;2023-08-31T04:50:03;10.70;99.90
12817;DHT22;6473;51.552;6.716;2023-08-31T04:52:33;10.70;99.90
12817;DHT22;6473;51.552;6.716;2023-08-31T04:55:01;10.70;99.90
12817;DHT22;6473;51.552;6.716;2023-08-31T04:57:29;11.60;99.90
12817;DHT22;6473;51.552;6.716;2023-08-31T04:59:55;10.70;99.90
12817;DHT22;6473;51.552;6.716;2023-08-31T05:02:22;10.70;99.90
12817;DHT22;6473;51.552;6.716;2023-08-31T05:04:49;10.70;99.90
12817;DHT22;6473;51.552;6.716;2023-08-31T05:07:16;12.30;99.90
12817;DHT22;6473;51.552;6.716;2023-08-31T05:09:44;11.50;99.90
12817;DHT22;6473;51.552;6.716;2023-08-31T05:12:11;10.70;99.90
12817;DHT22;6473;51.552;6.716;2023-08-31T05:14:38;10.80;99.90
12817;DHT22;6473;51.552;6.716;2023-08-31T05:17:05;10.70;99.90
12817;DHT22;6473;51.552;6.716;2023-08-31T05:19:32;10.80;99.90
12817;DHT22;6473;51.552;6.716;2023-08-31T05:21:59;10.80;99.90
12817;DHT22;6473;51.552;6.716;2023-08-31T05:24:25;10.80;99.90
12817;DHT22;6473;51.552;6.716;2023-08-31T05:26:54;10.90;99.90
12817;DHT22;6473;51.552;6.716;2023-08-31T05:29:54;10.90;99.90
12817;DHT22;6473;51.552;6.716;2023-08-31T05:32:21;11.00;99.90
12817;DHT22;6473;51.552;6.716;2023-08-31T05:34:48;11.00;99.90
12817;DHT22;6473;51.552;6.716;2023-08-31T05:37:14;11.00;99.90
12817;DHT22;6473;51.552;6.716;2023-08-31T05:39:41;11.10;99.90
12817;DHT22;6473;51.552;6.716;2023-08-31T05:42:09;11.10;99.90
12817;DHT22;6473;51.552;6.716;2023-08-31T05:44:36;12.40;99.90
12817;DHT22;6473;51.552;6.716;2023-08-31T05:47:03;11.60;99.90
12817;DHT22;6473;51.552;6.716;2023-08-31T05:49:30;11.20;99.90
12817;DHT22;6473;51.552;6.716;2023-08-31T05:51:58;11.20;99.90
12817;DHT22;6473;51.552;6.716;2023-08-31T05:54:25;11.30;99.90
12817;DHT22;6473;51.552;6.716;2023-08-31T05:56:52;12.30;99.90
12817;DHT22;6473;51.552;6.716;2023-08-31T05:59:21;11.50;99.90
12817;DHT22;6473;51.552;6.716;2023-08-31T06:01:47;11.40;99.90
12817;DHT22;6473;51.552;6.716;2023-08-31T06:04:14;11.40;99.90
12817;DHT22;6473;51.552;6.716;2023-08-31T06:06:41;11.50;99.90
12817;DHT22;6473;51.552;6.716;2023-08-31T06:09:08;11.60;99.90
12817;DHT22;6473;51.552;6.716;2023-08-31T06:11:36;11.80;99.90
12817;DHT22;6473;51.552;6.716;2023-08-31T06:14:04;12.20;99.90
12817;DHT22;6473;51.552;6.716;2023-08-31T06:16:33;12.20;99.90
12817;DHT22;6473;51.552;6.716;2023-08-31T06:18:59;12.40;99.90
12817;DHT22;6473;51.552;6.716;2023-08-31T06:21:26;12.50;99.90
12817;DHT22;6473;51.552;6.716;2023-08-31T06:23:53;12.80;99.90
12817;DHT22;6473;51.552;6.716;2023-08-31T06:26:20;12.90;99.90
12817;DHT22;6473;51.552;6.716;2023-08-31T06:28:47;13.40;99.90
12817;DHT22;6473;51.552;6.716;2023-08-31T06:31:14;13.80;99.90
12817;DHT22;6473;51.552;6.716;2023-08-31T06:33:42;14.00;99.90
12817;DHT22;6473;51.552;6.716;2023-08-31T06:36:09;14.20;99.90
12817;DHT22;6473;51.552;6.716;2023-08-31T06:38:35;15.00;99.90
12817;DHT22;6473;51.552;6.716;2023-08-31T06:41:02;14.60;99.90
12817;DHT22;6473;51.552;6.716;2023-08-31T06:43:29;15.10;99.90
12817;DHT22;6473;51.552;6.716;2023-08-31T06:45:57;15.30;99.90
12817;DHT22;6473;51.552;6.716;2023-08-31T06:48:23;16.60;99.90
12817;DHT22;6473;51.552;6.716;2023-08-31T06:50:52;16.00;99.90
12817;DHT22;6473;51.552;6.716;2023-08-31T06:53:18;16.70;99.90
12817;DHT22;6473;51.552;6.716;2023-08-31T06:55:45;17.80;99.90
12817;DHT22;6473;51.552;6.716;2023-08-31T06:58:12;17.10;99.90
12817;DHT22;6473;51.552;6.716;2023-08-31T07:00:40;17.00;99.90
12817;DHT22;6473;51.552;6.716;2023-08-31T07:03:07;16.90;99.90
12817;DHT22;6473;51.552;6.716;2023-08-31T07:05:34;17.00;99.90
12817;DHT22;6473;51.552;6.716;2023-08-31T07:08:03;16.80;99.90
12817;DHT22;6473;51.552;6.716;2023-08-31T07:10:30;16.30;99.90
12817;DHT22;6473;51.552;6.716;2023-08-31T07:12:57;16.10;99.90
12817;DHT22;6473;51.552;6.716;2023-08-31T07:15:24;17.30;99.90
12817;DHT22;6473;51.552;6.716;2023-08-31T07:17:51;15.60;99.90
12817;DHT22;6473;51.552;6.716;2023-08-31T07:20:18;15.30;99.90
12817;DHT22;6473;51.552;6.716;2023-08-31T07:22:45;15.10;99.90
12817;DHT22;6473;51.552;6.716;2023-08-31T07:25:13;17.00;99.90
12817;DHT22;6473;51.552;6.716;2023-08-31T07:27:40;16.10;99.90
12817;DHT22;6473;51.552;6.716;2023-08-31T07:30:07;15.40;99.90
12817;DHT22;6473;51.552;6.716;2023-08-31T07:32:35;15.40;99.90
12817;DHT22;6473;51.552;6.716;2023-08-31T07:35:03;15.60;99.90
12817;DHT22;6473;51.552;6.716;2023-08-31T07:37:30;16.20;99.90
12817;DHT22;6473;51.552;6.716;2023-08-31T07:39:57;16.80;99.90
12817;DHT22;6473;51.552;6.716;2023-08-31T07:42:25;16.80;99.90
12817;DHT22;6473;51.552;6.716;2023-08-31T07:44:52;17.00;99.90
12817;DHT22;6473;51.552;6.716;2023-08-31T07:47:19;17.90;99.90
12817;DHT22;6473;51.552;6.716;2023-08-31T07:49:45;18.40;99.90
12817;DHT22;6473;51.552;6.716;2023-08-31T07:52:12;18.90;99.90
12817;DHT22;6473;51.552;6.716;2023-08-31T07:54:39;18.90;92.10
12817;DHT22;6473;51.552;6.716;2023-08-31T07:57:07;18.80;95.70
12817;DHT22;6473;51.552;6.716;2023-08-31T07:59:35;18.30;97.70
12817;DHT22;6473;51.552;6.716;2023-08-31T08:02:05;17.70;99.90
12817;DHT22;6473;51.552;6.716;2023-08-31T08:04:32;17.30;99.90
12817;DHT22;6473;51.552;6.716;2023-08-31T08:06:58;18.10;99.90
12817;DHT22;6473;51.552;6.716;2023-08-31T08:09:25;17.70;99.90
12817;DHT22;6473;51.552;6.716;2023-08-31T08:11:52;19.70;99.90
12817;DHT22;6473;51.552;6.716;2023-08-31T08:14:19;18.70;98.60
12817;DHT22;6473;51.552;6.716;2023-08-31T08:16:47;18.90;96.00
12817;DHT22;6473;51.552;6.716;2023-08-31T08:19:21;19.30;93.90
12817;DHT22;6473;51.552;6.716;2023-08-31T08:21:48;19.50;80.60
12817;DHT22;6473;51.552;6.716;2023-08-31T08:24:15;19.80;87.60
12817;DHT22;6473;51.552;6.716;2023-08-31T08:26:42;20.10;79.80
12817;DHT22;6473;51.552;6.716;2023-08-31T08:29:08;20.10;81.10
12817;DHT22;6473;51.552;6.716;2023-08-31T08:31:35;21.10;76.60
12817;DHT22;6473;51.552;6.716;2023-08-31T08:34:03;20.30;77.10
12817;DHT22;6473;51.552;6.716;2023-08-31T08:36:31;20.60;59.80
12817;DHT22;6473;51.552;6.716;2023-08-31T08:38:58;21.60;49.10
12817;DHT22;6473;51.552;6.716;2023-08-31T08:41:25;20.40;55.70
12817;DHT22;6473;51.552;6.716;2023-08-31T08:43:57;20.40;61.10
12817;DHT22;6473;51.552;6.716;2023-08-31T08:46:27;22.10;47.00
12817;DHT22;6473;51.552;6.716;2023-08-31T08:48:54;20.30;43.50
12817;DHT22;6473;51.552;6.716;2023-08-31T08:51:23;20.10;49.50
12817;DHT22;6473;51.552;6.716;2023-08-31T08:53:50;20.70;46.50
12817;DHT22;6473;51.552;6.716;2023-08-31T08:56:18;20.60;44.40
12817;DHT22;6473;51.552;6.716;2023-08-31T08:58:45;23.00;43.50
12817;DHT22;6473;51.552;6.716;2023-08-31T09:01:12;21.00;39.40
12817;DHT22;6473;51.552;6.716;2023-08-31T09:03:43;21.00;46.00
12817;DHT22;6473;51.552;6.716;2023-08-31T09:06:10;21.60;28.70
12817;DHT22;6473;51.552;6.716;2023-08-31T09:08:41;21.70;34.40
12817;DHT22;6473;51.552;6.716;2023-08-31T09:11:08;22.10;28.20
12817;DHT22;6473;51.552;6.716;2023-08-31T09:13:39;22.20;20.40
12817;DHT22;6473;51.552;6.716;2023-08-31T09:16:06;22.10;21.00
12817;DHT22;6473;51.552;6.716;2023-08-31T09:18:33;21.70;19.40
12817;DHT22;6473;51.552;6.716;2023-08-31T09:21:00;21.50;23.80
12817;DHT22;6473;51.552;6.716;2023-08-31T09:23:28;21.50;28.70
12817;DHT22;6473;51.552;6.716;2023-08-31T09:25:57;21.80;27.80
12817;DHT22;6473;51.552;6.716;2023-08-31T09:28:26;21.30;20.90
12817;DHT22;6473;51.552;6.716;2023-08-31T09:31:07;20.70;26.10
12817;DHT22;6473;51.552;6.716;2023-08-31T09:33:34;20.40;42.10
12817;DHT22;6473;51.552;6.716;2023-08-31T09:36:02;20.50;34.60
12817;DHT22;6473;51.552;6.716;2023-08-31T09:38:29;20.20;43.10
12817;DHT22;6473;51.552;6.716;2023-08-31T09:41:03;19.90;38.50
12817;DHT22;6473;51.552;6.716;2023-08-31T09:43:31;19.70;53.00
12817;DHT22;6473;51.552;6.716;2023-08-31T09:45:58;19.80;51.50
12817;DHT22;6473;51.552;6.716;2023-08-31T09:48:26;20.00;33.30
12817;DHT22;6473;51.552;6.716;2023-08-31T09:50:55;19.90;38.20
12817;DHT22;6473;51.552;6.716;2023-08-31T09:53:24;19.80;37.30
12817;DHT22;6473;51.552;6.716;2023-08-31T09:55:51;19.80;36.00
12817;DHT22;6473;51.552;6.716;2023-08-31T09:58:20;19.80;41.90
12817;DHT22;6473;51.552;6.716;2023-08-31T10:00:49;20.00;42.10
12817;DHT22;6473;51.552;6.716;2023-08-31T10:03:16;20.30;46.50
12817;DHT22;6473;51.552;6.716;2023-08-31T10:05:43;20.70;23.10
12817;DHT22;6473;51.552;6.716;2023-08-31T10:08:11;20.70;21.20
12817;DHT22;6473;51.552;6.716;2023-08-31T10:10:39;21.00;15.70
12817;DHT22;6473;51.552;6.716;2023-08-31T10:13:06;20.90;10.00
12817;DHT22;6473;51.552;6.716;2023-08-31T10:15:36;20.90;9.60
12817;DHT22;6473;51.552;6.716;2023-08-31T10:18:04;20.60;8.70
12817;DHT22;6473;51.552;6.716;2023-08-31T10:20:32;20.70;1.00
12817;DHT22;6473;51.552;6.716;2023-08-31T10:23:00;21.10;4.50
12817;DHT22;6473;51.552;6.716;2023-08-31T10:26:04;21.50;2.50
12817;DHT22;6473;51.552;6.716;2023-08-31T10:28:39;21.50;1.00
12817;DHT22;6473;51.552;6.716;2023-08-31T10:31:09;21.30;1.00
12817;DHT22;6473;51.552;6.716;2023-08-31T10:33:40;21.50;1.00
12817;DHT22;6473;51.552;6.716;2023-08-31T10:36:11;20.90;1.00
12817;DHT22;6473;51.552;6.716;2023-08-31T10:38:39;20.50;3.10
12817;DHT22;6473;51.552;6.716;2023-08-31T10:41:20;22.70;5.30
12817;DHT22;6473;51.552;6.716;2023-08-31T10:43:49;21.30;3.60
12817;DHT22;6473;51.552;6.716;2023-08-31T10:46:29;22.60;1.40
12817;DHT22;6473;51.552;6.716;2023-08-31T10:48:57;21.40;1.00
12817;DHT22;6473;51.552;6.716;2023-08-31T10:51:26;21.60;1.00
12817;DHT22;6473;51.552;6.716;2023-08-31T10:54:04;20.70;1.10
12817;DHT22;6473;51.552;6.716;2023-08-31T10:56:32;20.70;1.00
12817;DHT22;6473;51.552;6.716;2023-08-31T10:59:00;20.50;2.80
12817;DHT22;6473;51.552;6.716;2023-08-31T11:01:56;20.40;4.50
12817;DHT22;6473;51.552;6.716;2023-08-31T11:04:24;20.20;7.40
12817;DHT22;6473;51.552;6.716;2023-08-31T11:07:11;20.90;9.30
12817;DHT22;6473;51.552;6.716;2023-08-31T11:09:38;20.90;2.90
12817;DHT22;6473;51.552;6.716;2023-08-31T11:12:05;20.60;12.90
12817;DHT22;6473;51.552;6.716;2023-08-31T11:14:32;20.50;9.70
12817;DHT22;6473;51.552;6.716;2023-08-31T11:17:01;20.30;10.90
12817;DHT22;6473;51.552;6.716;2023-08-31T11:19:30;20.80;12.30
12817;DHT22;6473;51.552;6.716;2023-08-31T11:21:58;21.90;1.00
12817;DHT22;6473;51.552;6.716;2023-08-31T11:24:26;22.80;1.00
12817;DHT22;6473;51.552;6.716;2023-08-31T11:26:53;22.50;1.00
12817;DHT22;6473;51.552;6.716;2023-08-31T11:29:20;22.60;1.00
12817;DHT22;6473;51.552;6.716;2023-08-31T11:31:47;21.40;1.00
12817;DHT22;6473;51.552;6.716;2023-08-31T11:34:17;22.40;1.00
12817;DHT22;6473;51.552;6.716;2023-08-31T11:36:45;21.60;1.00
12817;DHT22;6473;51.552;6.716;2023-08-31T11:39:12;21.90;1.00
12817;DHT22;6473;51.552;6.716;2023-08-31T11:41:40;21.90;1.00
12817;DHT22;6473;51.552;6.716;2023-08-31T11:44:09;23.60;1.00
12817;DHT22;6473;51.552;6.716;2023-08-31T11:46:36;21.20;1.00
12817;DHT22;6473;51.552;6.716;2023-08-31T11:49:03;23.30;1.00
12817;DHT22;6473;51.552;6.716;2023-08-31T11:51:32;23.60;1.00
12817;DHT22;6473;51.552;6.716;2023-08-31T11:54:00;24.20;1.00
12817;DHT22;6473;51.552;6.716;2023-08-31T11:56:38;24.30;1.00
12817;DHT22;6473;51.552;6.716;2023-08-31T11:59:08;25.40;1.00
12817;DHT22;6473;51.552;6.716;2023-08-31T12:01:38;25.40;1.00
12817;DHT22;6473;51.552;6.716;2023-08-31T12:04:10;25.30;1.00
12817;DHT22;6473;51.552;6.716;2023-08-31T12:06:39;26.20;1.00
12817;DHT22;6473;51.552;6.716;2023-08-31T12:09:07;26.20;1.00
12817;DHT22;6473;51.552;6.716;2023-08-31T12:11:34;26.30;1.00
12817;DHT22;6473;51.552;6.716;2023-08-31T12:14:01;26.40;1.00
12817;DHT22;6473;51.552;6.716;2023-08-31T12:16:33;26.50;1.00
12817;DHT22;6473;51.552;6.716;2023-08-31T12:19:02;24.80;1.00
12817;DHT22;6473;51.552;6.716;2023-08-31T12:21:30;24.70;1.00
12817;DHT22;6473;51.552;6.716;2023-08-31T12:23:58;24.60;1.00
12817;DHT22;6473;51.552;6.716;2023-08-31T12:26:25;24.10;1.00
12817;DHT22;6473;51.552;6.716;2023-08-31T12:28:52;23.60;1.00
12817;DHT22;6473;51.552;6.716;2023-08-31T12:31:19;23.20;1.00
12817;DHT22;6473;51.552;6.716;2023-08-31T12:33:46;23.40;1.00
12817;DHT22;6473;51.552;6.716;2023-08-31T12:36:13;23.50;1.00
12817;DHT22;6473;51.552;6.716;2023-08-31T12:38:40;24.30;1.00
12817;DHT22;6473;51.552;6.716;2023-08-31T12:41:08;24.40;1.00
12817;DHT22;6473;51.552;6.716;2023-08-31T12:43:35;24.50;1.00
12817;DHT22;6473;51.552;6.716;2023-08-31T12:46:02;24.10;1.00
12817;DHT22;6473;51.552;6.716;2023-08-31T12:48:32;23.60;1.00
12817;DHT22;6473;51.552;6.716;2023-08-31T12:50:59;23.40;1.00
12817;DHT22;6473;51.552;6.716;2023-08-31T12:53:26;24.10;1.00
12817;DHT22;6473;51.552;6.716;2023-08-31T12:55:53;24.50;1.00
12817;DHT22;6473;51.552;6.716;2023-08-31T12:58:21;24.80;1.00
12817;DHT22;6473;51.552;6.716;2023-08-31T13:00:48;25.70;1.00
12817;DHT22;6473;51.552;6.716;2023-08-31T13:03:18;24.70;1.00
12817;DHT22;6473;51.552;6.716;2023-08-31T13:05:46;24.20;1.00
12817;DHT22;6473;51.552;6.716;2023-08-31T13:08:14;23.30;1.00
12817;DHT22;6473;51.552;6.716;2023-08-31T13:10:41;22.60;1.00
12817;DHT22;6473;51.552;6.716;2023-08-31T13:13:08;22.10;1.00
12817;DHT22;6473;51.552;6.716;2023-08-31T13:15:36;21.60;1.00
12817;DHT22;6473;51.552;6.716;2023-08-31T13:18:04;22.10;1.00
12817;DHT22;6473;51.552;6.716;2023-08-31T13:20:31;22.40;1.00
12817;DHT22;6473;51.552;6.716;2023-08-31T13:22:58;22.50;1.00
12817;DHT22;6473;51.552;6.716;2023-08-31T13:25:25;22.60;1.00
12817;DHT22;6473;51.552;6.716;2023-08-31T13:27:51;22.90;1.00
12817;DHT22;6473;51.552;6.716;2023-08-31T13:30:18;23.50;1.00
12817;DHT22;6473;51.552;6.716;2023-08-31T13:32:46;23.40;1.00
12817;DHT22;6473;51.552;6.716;2023-08-31T13:35:14;23.00;1.00
12817;DHT22;6473;51.552;6.716;2023-08-31T13:37:41;22.10;1.00
12817;DHT22;6473;51.552;6.716;2023-08-31T13:40:08;21.40;1.00
12817;DHT22;6473;51.552;6.716;2023-08-31T13:46:28;20.60;9.50
12817;DHT22;6473;51.552;6.716;2023-08-31T13:48:58;19.60;34.00
12817;DHT22;6473;51.552;6.716;2023-08-31T13:51:27;19.30;70.70
12817;DHT22;6473;51.552;6.716;2023-08-31T13:53:54;18.70;99.90
12817;DHT22;6473;51.552;6.716;2023-08-31T13:56:21;19.80;99.90
12817;DHT22;6473;51.552;6.716;2023-08-31T13:58:48;19.40;99.90
12817;DHT22;6473;51.552;6.716;2023-08-31T14:01:15;17.60;99.90
12817;DHT22;6473;51.552;6.716;2023-08-31T14:03:42;19.00;99.90
12817;DHT22;6473;51.552;6.716;2023-08-31T14:06:10;17.20;99.90
12817;DHT22;6473;51.552;6.716;2023-08-31T14:08:37;17.20;99.90
12817;DHT22;6473;51.552;6.716;2023-08-31T14:11:04;16.80;99.90
12817;DHT22;6473;51.552;6.716;2023-08-31T14:13:31;16.60;99.90
12817;DHT22;6473;51.552;6.716;2023-08-31T14:15:58;16.40;99.90
12817;DHT22;6473;51.552;6.716;2023-08-31T14:18:26;16.20;99.90
12817;DHT22;6473;51.552;6.716;2023-08-31T14:20:55;16.10;99.90
12817;DHT22;6473;51.552;6.716;2023-08-31T14:23:23;15.90;99.90
12817;DHT22;6473;51.552;6.716;2023-08-31T14:25:50;17.20;99.90
12817;DHT22;6473;51.552;6.716;2023-08-31T14:28:17;16.10;99.90
12817;DHT22;6473;51.552;6.716;2023-08-31T14:30:43;16.20;99.90
12817;DHT22;6473;51.552;6.716;2023-08-31T14:33:10;16.80;99.90
12817;DHT22;6473;51.552;6.716;2023-08-31T14:35:37;16.30;99.90
12817;DHT22;6473;51.552;6.716;2023-08-31T14:38:05;16.20;99.90
12817;DHT22;6473;51.552;6.716;2023-08-31T14:40:33;17.40;99.90
12817;DHT22;6473;51.552;6.716;2023-08-31T14:43:02;16.30;99.90
12817;DHT22;6473;51.552;6.716;2023-08-31T14:45:29;16.30;99.90
12817;DHT22;6473;51.552;6.716;2023-08-31T14:47:56;16.30;99.90
12817;DHT22;6473;51.552;6.716;2023-08-31T14:50:23;16.40;99.90
12817;DHT22;6473;51.552;6.716;2023-08-31T14:52:50;16.50;99.90
12817;DHT22;6473;51.552;6.716;2023-08-31T14:55:17;16.50;99.90
12817;DHT22;6473;51.552;6.716;2023-08-31T14:57:45;16.60;99.90
12817;DHT22;6473;51.552;6.716;2023-08-31T15:00:13;16.50;99.90
12817;DHT22;6473;51.552;6.716;2023-08-31T15:02:40;16.60;99.90
12817;DHT22;6473;51.552;6.716;2023-08-31T15:05:07;16.80;99.90
12817;DHT22;6473;51.552;6.716;2023-08-31T15:07:34;16.50;99.90
12817;DHT22;6473;51.552;6.716;2023-08-31T15:10:01;16.50;99.90
12817;DHT22;6473;51.552;6.716;2023-08-31T15:12:28;16.50;99.90
12817;DHT22;6473;51.552;6.716;2023-08-31T15:14:57;16.50;99.90
12817;DHT22;6473;51.552;6.716;2023-08-31T15:17:23;18.20;99.90
12817;DHT22;6473;51.552;6.716;2023-08-31T15:19:51;16.50;99.90
12817;DHT22;6473;51.552;6.716;2023-08-31T15:22:18;16.60;99.90
12817;DHT22;6473;51.552;6.716;2023-08-31T15:24:45;16.70;99.90
12817;DHT22;6473;51.552;6.716;2023-08-31T15:27:12;18.00;99.90
12817;DHT22;6473;51.552;6.716;2023-08-31T15:29:39;16.60;99.90
12817;DHT22;6473;51.552;6.716;2023-08-31T15:32:07;16.50;99.90
12817;DHT22;6473;51.552;6.716;2023-08-31T15:34:34;16.40;99.90
12817;DHT22;6473;51.552;6.716;2023-08-31T15:37:01;16.30;99.90
12817;DHT22;6473;51.552;6.716;2023-08-31T15:39:28;16.30;99.90
12817;DHT22;6473;51.552;6.716;2023-08-31T15:41:56;16.30;99.90
12817;DHT22;6473;51.552;6.716;2023-08-31T15:44:23;16.40;99.90
12817;DHT22;6473;51.552;6.716;2023-08-31T15:46:50;16.50;99.90
12817;DHT22;6473;51.552;6.716;2023-08-31T15:49:18;18.10;99.90
12817;DHT22;6473;51.552;6.716;2023-08-31T15:51:45;16.40;99.90
12817;DHT22;6473;51.552;6.716;2023-08-31T15:54:13;16.40;99.90
12817;DHT22;6473;51.552;6.716;2023-08-31T15:56:40;16.40;99.90
12817;DHT22;6473;51.552;6.716;2023-08-31T15:59:07;16.50;99.90